sensor_id;sensor_type;location;lat;lon;timestamp;temperature;humidity
41080;DHT22;26826;50.718;7.114;2022-08-25T00:08:41;23.80;86.90
41080;DHT22;26826;50.718;7.114;2022-08-25T00:18:43;23.60;89.60
41080;DHT22;26826;50.718;7.114;2022-08-25T00:28:47;23.40;91.20
41080;DHT22;26826;50.718;7.114;2022-08-25T00:38:48;23.20;92.20
41080;DHT22;26826;50.718;7.114;2022-08-25T00:48:58;23.10;92.40
41080;DHT22;26826;50.718;7.114;2022-08-25T00:59:01;22.90;91.70
41080;DHT22;26826;50.718;7.114;2022-08-25T01:09:02;22.80;92.80
41080;DHT22;26826;50.718;7.114;2022-08-25T01:19:06;22.60;92.00
41080;DHT22;26826;50.718;7.114;2022-08-25T01:29:08;22.40;93.10
41080;DHT22;26826;50.718;7.114;2022-08-25T01:39:21;22.30;94.20
41080;DHT22;26826;50.718;7.114;2022-08-25T01:49:21;22.10;95.30
41080;DHT22;26826;50.718;7.114;2022-08-25T01:59:22;22.00;96.00
41080;DHT22;26826;50.718;7.114;2022-08-25T02:09:23;22.00;96.50
41080;DHT22;26826;50.718;7.114;2022-08-25T02:19:24;21.60;97.80
41080;DHT22;26826;50.718;7.114;2022-08-25T02:29:25;21.40;99.20
41080;DHT22;26826;50.718;7.114;2022-08-25T02:39:25;21.10;99.90
41080;DHT22;26826;50.718;7.114;2022-08-25T02:49:26;21.00;99.90
41080;DHT22;26826;50.718;7.114;2022-08-25T02:59:27;20.80;99.90
41080;DHT22;26826;50.718;7.114;2022-08-25T03:09:27;20.80;99.90
41080;DHT22;26826;50.718;7.114;2022-08-25T03:19:28;20.70;99.90
41080;DHT22;26826;50.718;7.114;2022-08-25T03:29:31;20.50;99.90
41080;DHT22;26826;50.718;7.114;2022-08-25T03:39:32;20.50;99.90
41080;DHT22;26826;50.718;7.114;2022-08-25T03:49:32;20.40;99.90
41080;DHT22;26826;50.718;7.114;2022-08-25T03:59:33;20.40;99.90
41080;DHT22;26826;50.718;7.114;2022-08-25T04:09:34;20.40;99.90
41080;DHT22;26826;50.718;7.114;2022-08-25T04:19:35;20.40;99.90
41080;DHT22;26826;50.718;7.114;2022-08-25T04:29:36;20.10;99.90
41080;DHT22;26826;50.718;7.114;2022-08-25T04:39:37;19.80;99.90
41080;DHT22;26826;50.718;7.114;2022-08-25T04:49:38;19.70;99.90
41080;DHT22;26826;50.718;7.114;2022-08-25T04:59:38;19.60;99.90
41080;DHT22;26826;50.718;7.114;2022-08-25T05:09:39;19.50;99.90
41080;DHT22;26826;50.718;7.114;2022-08-25T05:19:40;19.60;99.90
41080;DHT22;26826;50.718;7.114;2022-08-25T05:29:40;19.70;99.90
41080;DHT22;26826;50.718;7.114;2022-08-25T05:39:41;19.80;99.90
41080;DHT22;26826;50.718;7.114;2022-08-25T05:49:41;19.90;99.90
41080;DHT22;26826;50.718;7.114;2022-08-25T05:59:42;20.20;99.90
41080;DHT22;26826;50.718;7.114;2022-08-25T06:19:34;20.60;99.90
41080;DHT22;26826;50.718;7.114;2022-08-25T06:29:35;21.70;99.90
41080;DHT22;26826;50.718;7.114;2022-08-25T06:39:35;22.20;99.90
41080;DHT22;26826;50.718;7.114;2022-08-25T06:49:36;22.90;99.90
41080;DHT22;26826;50.718;7.114;2022-08-25T06:59:37;23.40;99.90
41080;DHT22;26826;50.718;7.114;2022-08-25T07:09:37;23.80;99.90
41080;DHT22;26826;50.718;7.114;2022-08-25T07:19:38;24.30;99.90
41080;DHT22;26826;50.718;7.114;2022-08-25T07:29:38;24.80;99.90
41080;DHT22;26826;50.718;7.114;2022-08-25T07:39:39;25.20;99.50
41080;DHT22;26826;50.718;7.114;2022-08-25T07:49:40;25.80;98.80
41080;DHT22;26826;50.718;7.114;2022-08-25T07:59:41;25.90;98.70
41080;DHT22;26826;50.718;7.114;2022-08-25T08:09:42;26.20;98.90
41080;DHT22;26826;50.718;7.114;2022-08-25T08:19:43;26.60;98.50
41080;DHT22;26826;50.718;7.114;2022-08-25T08:29:43;27.10;97.50
41080;DHT22;26826;50.718;7.114;2022-08-25T08:39:45;27.20;97.30
41080;DHT22;26826;50.718;7.114;2022-08-25T08:50:09;27.90;96.60
41080;DHT22;26826;50.718;7.114;2022-08-25T09:00:13;28.40;95.90
41080;DHT22;26826;50.718;7.114;2022-08-25T09:10:15;28.40;95.50
41080;DHT22;26826;50.718;7.114;2022-08-25T09:20:42;28.70;94.90
41080;DHT22;26826;50.718;7.114;2022-08-25T09:31:38;29.50;94.50
41080;DHT22;26826;50.718;7.114;2022-08-25T09:41:40;29.80;93.40
41080;DHT22;26826;50.718;7.114;2022-08-25T09:51:41;30.40;92.50
41080;DHT22;26826;50.718;7.114;2022-08-25T10:11:49;30.70;90.90
41080;DHT22;26826;50.718;7.114;2022-08-25T10:22:10;31.80;90.30
41080;DHT22;26826;50.718;7.114;2022-08-25T10:32:27;32.40;88.10
41080;DHT22;26826;50.718;7.114;2022-08-25T10:53:08;33.50;85.00
41080;DHT22;26826;50.718;7.114;2022-08-25T11:13:54;34.80;82.00
41080;DHT22;26826;50.718;7.114;2022-08-25T11:24:13;34.70;80.00
41080;DHT22;26826;50.718;7.114;2022-08-25T11:34:21;33.60;79.70
41080;DHT22;26826;50.718;7.114;2022-08-25T11:44:47;35.20;76.00
41080;DHT22;26826;50.718;7.114;2022-08-25T11:54:49;36.20;73.80
41080;DHT22;26826;50.718;7.114;2022-08-25T12:04:50;37.00;73.30
41080;DHT22;26826;50.718;7.114;2022-08-25T12:14:54;34.30;73.90
41080;DHT22;26826;50.718;7.114;2022-08-25T12:25:02;35.30;73.90
41080;DHT22;26826;50.718;7.114;2022-08-25T12:45:35;37.50;68.80
41080;DHT22;26826;50.718;7.114;2022-08-25T12:55:40;36.00;71.00
41080;DHT22;26826;50.718;7.114;2022-08-25T13:16:14;37.80;67.50
41080;DHT22;26826;50.718;7.114;2022-08-25T13:36:29;36.20;67.10
41080;DHT22;26826;50.718;7.114;2022-08-25T13:47:05;37.70;64.90
41080;DHT22;26826;50.718;7.114;2022-08-25T14:08:30;37.20;62.30
41080;DHT22;26826;50.718;7.114;2022-08-25T14:18:31;38.30;61.40
41080;DHT22;26826;50.718;7.114;2022-08-25T14:28:31;38.90;61.50
41080;DHT22;26826;50.718;7.114;2022-08-25T14:38:33;37.40;60.20
41080;DHT22;26826;50.718;7.114;2022-08-25T14:48:39;37.60;58.90
41080;DHT22;26826;50.718;7.114;2022-08-25T14:58:40;38.10;58.90
41080;DHT22;26826;50.718;7.114;2022-08-25T15:08:41;37.90;58.80
41080;DHT22;26826;50.718;7.114;2022-08-25T15:19:08;37.50;59.40
41080;DHT22;26826;50.718;7.114;2022-08-25T15:29:10;37.10;58.50
41080;DHT22;26826;50.718;7.114;2022-08-25T15:39:10;36.70;58.80
41080;DHT22;26826;50.718;7.114;2022-08-25T15:49:11;35.90;59.30
41080;DHT22;26826;50.718;7.114;2022-08-25T15:59:12;36.10;59.40
41080;DHT22;26826;50.718;7.114;2022-08-25T16:09:13;35.70;60.00
41080;DHT22;26826;50.718;7.114;2022-08-25T16:19:13;35.20;60.80
41080;DHT22;26826;50.718;7.114;2022-08-25T16:29:14;34.90;61.40
41080;DHT22;26826;50.718;7.114;2022-08-25T16:39:15;34.60;61.90
41080;DHT22;26826;50.718;7.114;2022-08-25T16:49:16;34.60;61.60
41080;DHT22;26826;50.718;7.114;2022-08-25T16:59:16;34.20;62.80
41080;DHT22;26826;50.718;7.114;2022-08-25T17:09:17;33.40;63.50
41080;DHT22;26826;50.718;7.114;2022-08-25T17:19:18;33.20;64.20
41080;DHT22;26826;50.718;7.114;2022-08-25T17:29:19;32.90;64.40
41080;DHT22;26826;50.718;7.114;2022-08-25T17:39:21;32.30;65.30
41080;DHT22;26826;50.718;7.114;2022-08-25T17:49:22;32.00;66.30
41080;DHT22;26826;50.718;7.114;2022-08-25T17:59:23;31.90;66.40
41080;DHT22;26826;50.718;7.114;2022-08-25T18:09:23;31.50;67.50
41080;DHT22;26826;50.718;7.114;2022-08-25T18:19:24;31.10;70.30
41080;DHT22;26826;50.718;7.114;2022-08-25T18:29:25;30.60;70.50
41080;DHT22;26826;50.718;7.114;2022-08-25T18:39:25;30.30;71.40
41080;DHT22;26826;50.718;7.114;2022-08-25T18:49:45;30.10;72.00
41080;DHT22;26826;50.718;7.114;2022-08-25T18:59:46;29.70;72.70
41080;DHT22;26826;50.718;7.114;2022-08-25T19:09:46;29.30;73.10
41080;DHT22;26826;50.718;7.114;2022-08-25T19:19:47;29.10;73.60
41080;DHT22;26826;50.718;7.114;2022-08-25T19:29:48;28.70;74.40
41080;DHT22;26826;50.718;7.114;2022-08-25T19:39:48;28.50;75.20
41080;DHT22;26826;50.718;7.114;2022-08-25T19:59:56;28.20;75.40
41080;DHT22;26826;50.718;7.114;2022-08-25T20:09:57;27.70;76.50
41080;DHT22;26826;50.718;7.114;2022-08-25T20:20:01;27.60;77.90
41080;DHT22;26826;50.718;7.114;2022-08-25T20:30:08;27.40;78.60
41080;DHT22;26826;50.718;7.114;2022-08-25T20:40:12;27.10;79.70
41080;DHT22;26826;50.718;7.114;2022-08-25T20:50:14;26.90;80.60
41080;DHT22;26826;50.718;7.114;2022-08-25T21:00:16;26.70;80.80
41080;DHT22;26826;50.718;7.114;2022-08-25T21:10:16;26.60;81.30
41080;DHT22;26826;50.718;7.114;2022-08-25T21:20:17;26.40;81.70
41080;DHT22;26826;50.718;7.114;2022-08-25T21:30:18;26.20;82.70
41080;DHT22;26826;50.718;7.114;2022-08-25T21:40:19;25.90;83.40
41080;DHT22;26826;50.718;7.114;2022-08-25T21:50:20;25.80;84.20
41080;DHT22;26826;50.718;7.114;2022-08-25T22:00:21;25.70;85.00
41080;DHT22;26826;50.718;7.114;2022-08-25T22:10:22;25.30;86.30
41080;DHT22;26826;50.718;7.114;2022-08-25T22:20:23;25.20;87.10
41080;DHT22;26826;50.718;7.114;2022-08-25T22:30:25;25.10;87.70
41080;DHT22;26826;50.718;7.114;2022-08-25T22:40:26;24.80;88.80
41080;DHT22;26826;50.718;7.114;2022-08-25T22:50:27;24.70;89.80
41080;DHT22;26826;50.718;7.114;2022-08-25T23:00:28;24.80;90.30
41080;DHT22;26826;50.718;7.114;2022-08-25T23:10:28;24.40;91.30
41080;DHT22;26826;50.718;7.114;2022-08-25T23:20:30;24.10;92.40
41080;DHT22;26826;50.718;7.114;2022-08-25T23:30:49;24.10;93.10
41080;DHT22;26826;50.718;7.114;2022-08-25T23:40:50;23.90;93.90
41080;DHT22;26826;50.718;7.114;2022-08-25T23:50:50;23.60;96.10
